createdAt,value
2024-02-29T00:03:17.962Z,12.93
2024-02-29T00:08:19.497Z,14.48
2024-02-29T00:13:21.590Z,14.48
2024-02-29T00:18:23.350Z,13.07
2024-02-29T00:23:24.918Z,13.85
2024-02-29T00:28:26.454Z,14.23
2024-02-29T00:33:28.133Z,14.15
2024-02-29T00:38:30.871Z,14.95
2024-02-29T00:43:32.501Z,14.43
2024-02-29T00:48:34.206Z,16.30
2024-02-29T00:53:35.851Z,16.52
2024-02-29T00:58:37.403Z,17.25
2024-02-29T01:03:39.185Z,17.10
2024-02-29T01:08:40.998Z,17.50
2024-02-29T01:13:42.617Z,18.35
2024-02-29T01:18:44.183Z,19.50
2024-02-29T01:23:45.744Z,19.55
2024-02-29T01:28:47.301Z,18.35
2024-02-29T01:33:48.891Z,20.33
2024-02-29T01:38:50.505Z,19.73
2024-02-29T01:43:55.945Z,18.63
2024-02-29T01:48:58.587Z,19.27
2024-02-29T01:54:00.130Z,18.73
2024-02-29T01:59:02.998Z,18.73
2024-02-29T02:04:04.965Z,17.95
2024-02-29T02:09:07.107Z,18.63
2024-02-29T02:14:08.612Z,18.02
2024-02-29T02:19:14.226Z,17.92
2024-02-29T02:24:15.786Z,17.92
2024-02-29T02:29:17.371Z,17.02
2024-02-29T02:34:19.099Z,17.13
2024-02-29T02:39:20.676Z,17.83
2024-02-29T02:44:22.256Z,16.48
2024-02-29T02:49:24.016Z,16.13
2024-02-29T02:54:25.551Z,15.40
2024-02-29T02:59:28.524Z,16.08
2024-02-29T03:04:30.026Z,16.73
2024-02-29T03:09:31.804Z,16.00
2024-02-29T03:14:33.465Z,17.60
2024-02-29T03:19:35.060Z,16.05
2024-02-29T03:24:43.203Z,17.80
2024-02-29T03:29:45.158Z,16.92
2024-02-29T03:34:46.715Z,17.02
2024-02-29T03:39:48.323Z,17.88
2024-02-29T03:44:50.044Z,17.55
2024-02-29T03:49:51.577Z,19.05
2024-02-29T03:54:53.112Z,17.77
2024-02-29T03:59:54.692Z,19.17
2024-02-29T04:04:56.312Z,17.80
2024-02-29T04:09:57.928Z,17.52
2024-02-29T04:14:59.839Z,17.33
2024-02-29T04:20:02.064Z,16.40
2024-02-29T04:25:04.168Z,16.42
2024-02-29T04:30:09.059Z,16.95
2024-02-29T04:35:11.150Z,16.25
2024-02-29T04:40:12.863Z,16.25
2024-02-29T04:45:14.572Z,16.40
2024-02-29T04:50:16.239Z,16.25
2024-02-29T04:55:17.877Z,15.57
2024-02-29T05:00:19.522Z,14.30
2024-02-29T05:05:21.166Z,14.57
2024-02-29T05:10:23.357Z,13.70
2024-02-29T05:15:24.943Z,14.73
2024-02-29T05:20:26.535Z,15.23
2024-02-29T05:25:29.243Z,15.52
2024-02-29T05:30:30.883Z,17.00
2024-02-29T05:35:35.828Z,16.25
2024-02-29T05:40:37.514Z,16.63
2024-02-29T05:45:39.159Z,17.02
2024-02-29T05:50:41.059Z,17.35
2024-02-29T05:55:42.701Z,19.45
2024-02-29T06:00:44.363Z,18.40
2024-02-29T06:05:46.221Z,19.88
2024-02-29T06:10:48.278Z,20.70
2024-02-29T06:15:49.989Z,20.15
2024-02-29T06:20:51.620Z,20.75
2024-02-29T06:25:53.203Z,20.98
2024-02-29T06:30:55.209Z,21.05
2024-02-29T06:36:20.641Z,21.52
2024-02-29T06:41:22.220Z,20.85
2024-02-29T06:46:23.759Z,21.38
2024-02-29T06:51:25.342Z,21.92
2024-02-29T06:56:26.862Z,20.48
2024-02-29T07:01:31.856Z,19.98
2024-02-29T07:06:33.664Z,20.35
2024-02-29T07:11:35.259Z,19.73
2024-02-29T07:16:37.435Z,19.58
2024-02-29T07:21:39.070Z,20.13
2024-02-29T07:26:44.321Z,20.20
2024-02-29T07:31:46.521Z,20.13
2024-02-29T07:36:48.204Z,20.35
2024-02-29T07:41:49.779Z,19.98
2024-02-29T07:46:51.323Z,20.60
2024-02-29T07:51:55.270Z,20.63
2024-02-29T07:56:57.505Z,19.95
2024-02-29T08:01:59.566Z,19.95
2024-02-29T08:07:01.222Z,19.30
2024-02-29T08:12:03.015Z,19.77
2024-02-29T08:17:04.795Z,18.23
2024-02-29T08:22:06.388Z,19.08
2024-02-29T08:27:07.941Z,18.58
2024-02-29T08:32:11.577Z,17.33
2024-02-29T08:37:14.921Z,18.27
2024-02-29T08:42:16.533Z,17.20
2024-02-29T08:47:18.081Z,17.55
2024-02-29T08:52:20.290Z,16.67
2024-02-29T08:57:21.926Z,15.48
2024-02-29T09:02:24.407Z,15.30
2024-02-29T09:07:26.124Z,16.77
2024-02-29T09:12:27.772Z,15.85
2024-02-29T09:17:29.703Z,15.90
2024-02-29T09:22:31.303Z,14.00
2024-02-29T09:27:32.833Z,15.50
2024-02-29T09:32:34.426Z,13.88
2024-02-29T09:37:35.990Z,14.77
2024-02-29T09:42:38.217Z,14.75
2024-02-29T09:47:41.484Z,15.85
2024-02-29T09:52:43.720Z,16.27
2024-02-29T09:57:46.135Z,16.52
2024-02-29T10:02:51.630Z,16.30
2024-02-29T10:07:54.622Z,16.83
2024-02-29T10:12:56.817Z,16.95
2024-02-29T10:18:00.350Z,16.40
2024-02-29T10:23:01.976Z,17.23
2024-02-29T10:28:06.757Z,17.13
2024-02-29T10:33:12.153Z,16.20
2024-02-29T10:38:13.892Z,16.85
2024-02-29T10:43:15.879Z,16.10
2024-02-29T10:48:24.075Z,16.80
2024-02-29T10:53:58.825Z,15.23
2024-02-29T10:59:08.421Z,15.25
2024-02-29T11:04:10.610Z,15.57
2024-02-29T11:09:13.789Z,15.65
2024-02-29T11:14:21.150Z,15.27
2024-02-29T11:19:22.834Z,15.02
2024-02-29T11:24:24.520Z,13.88
2024-02-29T11:29:26.225Z,14.20
2024-02-29T11:34:28.662Z,14.23
2024-02-29T11:39:30.401Z,14.10
2024-02-29T11:44:32.932Z,13.55
2024-02-29T11:49:35.068Z,12.50
2024-02-29T11:54:37.137Z,12.05
2024-02-29T11:59:39.710Z,12.40
2024-02-29T12:04:41.283Z,11.25
2024-02-29T12:09:43.374Z,10.85
2024-02-29T12:14:45.053Z,11.15
2024-02-29T12:19:47.019Z,10.55
2024-02-29T12:24:48.691Z,10.25
2024-02-29T12:29:50.440Z,10.60
2024-02-29T12:34:54.261Z,10.02
2024-02-29T12:40:00.683Z,10.40
2024-02-29T12:45:02.653Z,9.95
2024-02-29T12:50:05.607Z,9.73
2024-02-29T12:55:08.203Z,9.88
2024-02-29T13:00:24.506Z,9.82
2024-02-29T13:05:26.099Z,10.05
2024-02-29T13:10:27.837Z,9.57
2024-02-29T13:15:29.521Z,9.35
2024-02-29T13:20:31.227Z,8.77
2024-02-29T13:25:33.145Z,8.60
2024-02-29T13:30:34.724Z,9.30
2024-02-29T13:35:36.275Z,9.10
2024-02-29T13:40:38.934Z,8.90
2024-02-29T13:45:40.779Z,9.88
2024-02-29T13:50:43.514Z,10.07
2024-02-29T13:55:48.433Z,9.60
2024-02-29T14:00:50.586Z,9.02
2024-02-29T14:05:53.420Z,7.88
2024-02-29T14:10:55.380Z,7.75
2024-02-29T14:15:56.987Z,7.22
2024-02-29T14:20:58.642Z,7.00
2024-02-29T14:26:00.549Z,5.65
2024-02-29T14:31:02.273Z,6.18
2024-02-29T14:36:04.308Z,5.45
2024-02-29T14:41:05.885Z,5.45
2024-02-29T14:46:07.600Z,5.72
2024-02-29T14:51:09.221Z,6.88
2024-02-29T14:56:10.807Z,5.78
2024-02-29T15:01:12.464Z,5.60
2024-02-29T15:06:17.024Z,5.68
2024-02-29T15:11:18.891Z,6.00
2024-02-29T15:16:21.131Z,5.90
2024-02-29T15:21:22.932Z,5.97
2024-02-29T15:26:25.702Z,6.60
2024-02-29T15:31:27.269Z,6.28
2024-02-29T15:36:28.844Z,6.65
2024-02-29T15:41:30.439Z,6.38
2024-02-29T15:46:32.274Z,7.10
2024-02-29T15:51:33.991Z,6.95
2024-02-29T15:56:35.568Z,7.68
2024-02-29T16:01:37.355Z,8.45
2024-02-29T16:06:38.987Z,8.15
2024-02-29T16:11:40.515Z,8.60
2024-02-29T16:16:42.155Z,9.32
2024-02-29T16:21:43.833Z,10.05
2024-02-29T16:26:45.440Z,11.32
2024-02-29T16:31:47.537Z,11.43
2024-02-29T16:36:50.815Z,12.75
2024-02-29T16:41:52.503Z,11.93
2024-02-29T16:46:54.667Z,12.13
2024-02-29T16:51:56.642Z,14.48
2024-02-29T16:56:58.300Z,14.15
2024-02-29T17:02:00.010Z,13.43
2024-02-29T17:07:01.897Z,12.77
2024-02-29T17:12:03.514Z,14.25
2024-02-29T17:17:05.818Z,13.98
2024-02-29T17:22:07.408Z,12.43
2024-02-29T17:27:09.218Z,12.15
2024-02-29T17:32:11.236Z,11.50
2024-02-29T17:37:12.842Z,12.10
2024-02-29T17:42:14.431Z,12.32
2024-02-29T17:47:16.442Z,11.48
2024-02-29T17:52:18.529Z,15.00
2024-02-29T17:57:20.161Z,11.02
2024-02-29T18:02:21.750Z,10.30
2024-02-29T18:07:23.337Z,10.82
2024-02-29T18:12:24.991Z,10.90
2024-02-29T18:17:27.194Z,11.30
2024-02-29T18:22:29.045Z,11.35
2024-02-29T18:27:30.560Z,14.52
2024-02-29T18:32:33.101Z,13.50
2024-02-29T18:37:34.633Z,11.95
2024-02-29T18:42:36.254Z,11.05
2024-02-29T18:47:38.122Z,11.73
2024-02-29T18:52:40.281Z,13.13
2024-02-29T18:57:41.897Z,13.75
2024-02-29T19:02:43.710Z,12.90
2024-02-29T19:07:45.508Z,11.82
2024-02-29T19:12:47.149Z,10.38
2024-02-29T19:17:48.949Z,10.77
2024-02-29T19:22:51.287Z,9.82
2024-02-29T19:27:52.892Z,9.93
2024-02-29T19:32:54.652Z,9.75
2024-02-29T19:37:56.632Z,10.75
2024-02-29T19:42:58.185Z,10.70
2024-02-29T19:47:59.769Z,12.15
2024-02-29T19:53:01.328Z,12.05
2024-02-29T19:58:03.187Z,11.30
2024-02-29T20:03:06.788Z,10.70
2024-02-29T20:08:08.347Z,11.43
2024-02-29T20:13:10.141Z,11.60
2024-02-29T20:18:11.981Z,12.38
2024-02-29T20:23:14.457Z,10.95
2024-02-29T20:28:16.138Z,12.00
2024-02-29T20:33:17.818Z,11.65
2024-02-29T20:38:19.361Z,11.95
2024-02-29T20:43:21.341Z,12.13
2024-02-29T20:48:23.105Z,11.68
2024-02-29T20:53:24.659Z,12.15
2024-02-29T20:58:26.390Z,11.93
2024-02-29T21:03:28.149Z,11.85
2024-02-29T21:08:36.909Z,13.13
2024-02-29T21:13:38.472Z,11.20
2024-02-29T21:18:40.081Z,10.30
2024-02-29T21:23:41.785Z,10.75
2024-02-29T21:28:47.392Z,11.43
2024-02-29T21:33:49.119Z,11.48
2024-02-29T21:38:50.685Z,10.32
2024-02-29T21:43:52.711Z,11.20
2024-02-29T21:48:54.241Z,12.15
2024-02-29T21:53:55.764Z,12.20
2024-02-29T21:58:57.472Z,12.63
2024-02-29T22:03:59.020Z,14.13
2024-02-29T22:09:00.673Z,14.77
2024-02-29T22:14:02.258Z,14.07
2024-02-29T22:19:03.864Z,14.75
2024-02-29T22:24:05.930Z,14.55
2024-02-29T22:29:07.595Z,14.75
2024-02-29T22:34:10.469Z,14.52
2024-02-29T22:39:12.127Z,14.88
2024-02-29T22:44:13.744Z,15.10
2024-02-29T22:49:15.560Z,15.45
2024-02-29T22:54:18.223Z,15.18
2024-02-29T22:59:19.800Z,14.50
2024-02-29T23:04:22.053Z,14.27
2024-02-29T23:09:23.658Z,14.38
2024-02-29T23:14:25.198Z,14.10
2024-02-29T23:19:26.902Z,14.80
2024-02-29T23:24:28.451Z,15.25
2024-02-29T23:29:29.978Z,14.60
2024-02-29T23:34:31.558Z,15.23
2024-02-29T23:39:33.161Z,16.35
2024-02-29T23:44:34.740Z,15.05
2024-02-29T23:49:36.357Z,15.30
2024-02-29T23:54:37.981Z,15.32
2024-02-29T23:59:39.538Z,15.13
